Impacts METAR Board
IDs:

KLAS - Las Vegas/McCarran I, NV, US

Updated at: 2100 UTC 15 Jun 2019
Potential Impact None Slight Moderate High
Time 15/09Z 15/10Z 15/11Z 15/12Z 15/13Z 15/14Z 15/15Z 15/16Z 15/17Z 15/18Z 15/19Z 15/20Z 15/21Z
Temp80 79 77 77 76 79 84 88 91 93 94 98 97
Dewpt42 42 44 44 43 43 42 42 43 43 43 41 39
Altim29.79 29.79 29.81 29.82 29.84 29.85 29.87 29.88 29.87 29.87 29.86 29.84 29.82
VIS10 10 10 10 10 10 10 10 10 10 10 10 10
CIG-- -- -- -- -- -- -- -- -- -- -- -- --
CoverFEWCLRCLRFEWFEWFEWCLRFEWFEWFEWFEWFEWFEW
FltCatVFRVFRVFRVFRVFRVFRVFRVFRVFRVFRVFRVFRVFR
WX--------------------------
WDir0260270200200190180000000
WSpd0 4 3 5 5 3 3 0 5 0 0 6 3
WGst-- -- -- -- -- -- -- -- -- -- -- -- --
Raw hourly METARs
KLAS 150856Z 00000KT 10SM FEW150 27/06 A2979 RMK AO2 SLP059 T02670056 53003
KLAS 150956Z 26004KT 10SM CLR 26/06 A2979 RMK AO2 SLP060 T02610056
KLAS 151056Z 27003KT 10SM CLR 25/07 A2981 RMK AO2 SLP065 T02500067
KLAS 151156Z 20005KT 10SM FEW120 25/07 A2982 RMK AO2 SLP072 T02500067 10306 20250 53010
KLAS 151256Z 20005KT 10SM FEW120 24/06 A2984 RMK AO2 SLP075 T02440061
KLAS 151356Z 19003KT 10SM FEW120 26/06 A2985 RMK AO2 SLP081 T02610061
KLAS 151456Z 18003KT 10SM CLR 29/06 A2987 RMK AO2 SLP085 T02890056 52014
KLAS 151556Z 00000KT 10SM FEW120 31/06 A2988 RMK AO2 SLP088 T03110056
KLAS 151656Z VRB05KT 10SM FEW120 33/06 A2987 RMK AO2 SLP086 T03280061
KLAS 151756Z 00000KT 10SM FEW120 34/06 A2987 RMK AO2 SLP085 T03390061 10339 20244 50002
KLAS 151856Z 00000KT 10SM FEW120 34/06 A2986 RMK AO2 SLP083 T03440061
KLAS 151956Z VRB06KT 10SM FEW120 FEW160 37/05 A2984 RMK AO2 SLP073 T03670050
KLAS 152056Z VRB03KT 10SM FEW120 FEW160 36/04 A2982 RMK AO2 SLP067 T03610039 58018



Page loaded:  21:26 UTC  |   02:26 PM Pacific  |   03:26 PM Mountain  |   04:26 PM Central  |   05:26 PM Eastern

 

ADVISORIES

FORECASTS

FORECASTS

OBSERVATIONS

USER TOOLS

ABOUT US